Time;durP1;ratioP1;P1;durP2;ratioP2;P2;SDS_P1;SDS_P2;PMS_P1;PMS_P2;Temp;Humidity;BMP_temperature;BMP_pressure;BME280_temperature;BME280_humidity;BME280_pressure;Samples;Min_cycle;Max_cycle;Signal;HPM_P1;HPM_P2
2022/09/07 00:01:16;;;;;;;3.75;3.45;;;19.40;99.90;;;;;;5096243;28;20216;-93
2022/09/07 00:03:45;;;;;;;4.45;3.88;;;19.40;99.90;;;;;;5096181;28;20210;-94
2022/09/07 00:06:14;;;;;;;4.45;4.05;;;19.40;99.90;;;;;;5096224;28;20239;-93
2022/09/07 00:08:44;;;;;;;4.72;4.00;;;19.40;99.90;;;;;;5095954;28;20231;-93
2022/09/07 00:11:15;;;;;;;3.60;3.33;;;19.40;99.90;;;;;;5095893;28;20250;-93
2022/09/07 00:13:45;;;;;;;3.15;2.90;;;19.40;99.90;;;;;;5095392;28;20226;-94
2022/09/07 00:16:15;;;;;;;3.63;3.33;;;19.30;99.90;;;;;;5095894;28;20230;-95
2022/09/07 00:18:44;;;;;;;4.53;3.95;;;19.30;99.90;;;;;;5095466;28;20231;-94
2022/09/07 00:21:15;;;;;;;4.07;3.17;;;19.30;99.90;;;;;;5096088;28;20286;-93
2022/09/07 00:23:47;;;;;;;3.55;3.35;;;19.30;99.90;;;;;;5095738;28;20208;-93
2022/09/07 00:26:17;;;;;;;3.30;3.05;;;19.20;99.90;;;;;;5095809;28;20236;-92
2022/09/07 00:28:46;;;;;;;4.32;3.95;;;19.20;99.90;;;;;;5095789;28;20279;-93
2022/09/07 00:31:17;;;;;;;3.28;3.03;;;19.20;99.90;;;;;;5095554;28;20270;-94
2022/09/07 00:33:47;;;;;;;3.88;3.53;;;19.20;99.90;;;;;;5095965;28;20215;-93
2022/09/07 00:36:16;;;;;;;4.00;3.70;;;19.10;99.90;;;;;;5095465;28;20235;-92
2022/09/07 00:38:46;;;;;;;4.07;3.75;;;19.10;99.90;;;;;;5094840;28;20266;-92
2022/09/07 00:41:15;;;;;;;3.72;3.42;;;19.10;99.90;;;;;;5096042;28;20220;-94
2022/09/07 00:43:46;;;;;;;3.90;3.55;;;19.10;99.90;;;;;;5095723;28;20254;-94
2022/09/07 00:46:20;;;;;;;4.43;4.03;;;19.10;99.90;;;;;;5095197;28;20266;-94
2022/09/07 00:48:55;;;;;;;3.53;2.90;;;19.00;99.90;;;;;;5095125;28;20223;-93
2022/09/07 00:51:29;;;;;;;4.32;3.97;;;19.00;99.90;;;;;;5095079;28;20263;-93
2022/09/07 00:54:03;;;;;;;3.58;3.30;;;19.00;99.90;;;;;;5095541;28;20281;-94
2022/09/07 00:56:36;;;;;;;4.65;3.33;;;18.90;99.90;;;;;;5095198;28;20299;-94
2022/09/07 00:59:05;;;;;;;4.05;3.70;;;18.90;99.90;;;;;;5093971;28;20246;-93
2022/09/07 01:01:34;;;;;;;3.25;3.05;;;18.90;99.90;;;;;;5094961;28;20220;-92
2022/09/07 01:04:03;;;;;;;4.45;4.05;;;19.00;99.90;;;;;;5095309;28;20200;-93
2022/09/07 01:06:35;;;;;;;3.58;3.30;;;18.90;99.90;;;;;;5095320;28;20208;-93
2022/09/07 01:09:09;;;;;;;4.63;4.22;;;18.90;99.90;;;;;;5094908;28;20239;-93
2022/09/07 01:11:38;;;;;;;7.35;3.67;;;18.90;99.90;;;;;;5094818;28;20247;-93
2022/09/07 01:14:09;;;;;;;4.05;3.75;;;18.90;99.90;;;;;;5094576;28;20265;-93
2022/09/07 01:16:54;;;;;;;3.80;3.50;;;18.80;99.90;;;;;;5095244;28;20283;-93
2022/09/07 01:19:51;;;;;;;3.80;3.38;;;18.80;99.90;;;;;;5094558;28;20217;-93
2022/09/07 01:22:42;;;;;;;6.72;3.90;;;18.70;99.90;;;;;;5094994;28;20332;-93
2022/09/07 01:25:13;;;;;;;4.13;3.75;;;18.70;99.90;;;;;;5094743;28;20208;-94
2022/09/07 01:27:59;;;;;;;3.80;3.53;;;18.70;99.90;;;;;;5094259;28;20284;-94
2022/09/07 01:30:28;;;;;;;4.13;3.83;;;18.60;99.90;;;;;;5094150;28;20238;-94
2022/09/07 01:33:08;;;;;;;4.45;4.15;;;18.60;99.90;;;;;;5094551;28;20320;-94
2022/09/07 01:35:45;;;;;;;4.10;3.80;;;18.60;99.90;;;;;;5094696;28;20200;-94
2022/09/07 01:38:19;;;;;;;5.18;4.35;;;18.60;99.90;;;;;;5094217;28;20220;-94
2022/09/07 01:40:57;;;;;;;4.07;3.70;;;18.50;99.90;;;;;;5094159;28;20204;-93
2022/09/07 01:43:35;;;;;;;23.40;4.70;;;18.50;99.90;;;;;;5095204;28;20253;-95
2022/09/07 01:46:07;;;;;;;4.45;4.05;;;18.50;99.90;;;;;;5095433;28;20235;-94
2022/09/07 01:48:38;;;;;;;5.30;4.57;;;18.50;99.90;;;;;;5094766;28;20200;-93
2022/09/07 01:51:20;;;;;;;7.40;3.80;;;18.40;99.90;;;;;;5095733;28;20216;-93
2022/09/07 01:53:56;;;;;;;4.90;4.40;;;18.40;99.90;;;;;;5094608;28;20235;-93
2022/09/07 01:56:34;;;;;;;4.43;4.13;;;18.40;99.90;;;;;;5094717;28;20204;-93
2022/09/07 01:59:14;;;;;;;5.30;4.45;;;18.30;99.90;;;;;;5092584;28;20231;-93
2022/09/07 02:01:54;;;;;;;5.00;4.60;;;18.30;99.90;;;;;;5093789;28;20220;-92
2022/09/07 02:04:34;;;;;;;5.85;5.32;;;18.30;99.90;;;;;;5093860;28;20205;-93
2022/09/07 02:07:14;;;;;;;5.15;4.60;;;18.30;99.90;;;;;;5094073;28;20295;-92
2022/09/07 02:14:01;;;;;;;5.82;5.28;;;18.30;99.90;;;;;;5044290;28;20204;-93
2022/09/07 02:16:33;;;;;;;5.40;4.95;;;18.30;99.90;;;;;;5094308;28;20207;-94
2022/09/07 02:19:13;;;;;;;4.95;4.55;;;18.20;99.90;;;;;;5093363;28;20248;-95
2022/09/07 02:21:57;;;;;;;5.40;4.90;;;18.30;99.90;;;;;;5093872;28;20240;-94
2022/09/07 02:24:32;;;;;;;5.43;4.93;;;18.30;99.90;;;;;;5093952;28;20276;-93
2022/09/07 02:27:08;;;;;;;4.18;3.75;;;18.20;99.90;;;;;;5093546;28;20363;-94
2022/09/07 02:29:39;;;;;;;5.97;5.25;;;18.20;99.90;;;;;;5093382;28;20223;-93
2022/09/07 02:32:09;;;;;;;5.57;5.18;;;18.20;99.90;;;;;;5093593;28;20232;-92
2022/09/07 02:34:38;;;;;;;5.28;4.82;;;18.20;99.90;;;;;;5092951;28;20228;-95
2022/09/07 02:37:09;;;;;;;4.70;4.40;;;18.20;99.90;;;;;;5093372;28;20201;-95
2022/09/07 02:39:38;;;;;;;5.03;4.63;;;18.20;99.90;;;;;;5093277;28;20243;-95
2022/09/07 02:42:07;;;;;;;5.47;4.97;;;18.10;99.90;;;;;;5093148;28;20220;-94
2022/09/07 02:44:38;;;;;;;5.93;4.95;;;18.10;99.90;;;;;;5093377;28;20219;-94
2022/09/07 02:47:29;;;;;;;5.30;4.88;;;18.10;99.90;;;;;;5093351;28;20235;-95
2022/09/07 02:50:17;;;;;;;5.10;4.60;;;18.10;99.90;;;;;;5092924;28;20231;-93
2022/09/07 02:52:57;;;;;;;5.28;4.85;;;18.10;99.90;;;;;;5093130;28;20232;-94
2022/09/07 02:55:35;;;;;;;6.13;5.63;;;18.10;99.90;;;;;;5093083;28;20196;-94
2022/09/07 02:58:16;;;;;;;4.47;4.15;;;18.00;99.90;;;;;;5093295;28;20227;-94
2022/09/07 03:00:52;;;;;;;5.13;4.75;;;18.00;99.90;;;;;;5093265;28;20200;-94
2022/09/07 03:03:32;;;;;;;5.53;5.05;;;18.00;99.90;;;;;;5092926;28;20216;-92
2022/09/07 03:06:03;;;;;;;5.88;5.38;;;18.00;99.90;;;;;;5092999;28;20234;-94
2022/09/07 03:08:38;;;;;;;5.82;5.22;;;18.00;99.90;;;;;;5092408;28;20200;-93
2022/09/07 03:11:13;;;;;;;5.05;4.60;;;18.00;99.90;;;;;;5093490;28;20216;-94
2022/09/07 03:13:44;;;;;;;5.43;5.03;;;18.00;99.90;;;;;;5092753;28;20222;-93
2022/09/07 03:16:14;;;;;;;6.32;5.68;;;18.00;99.90;;;;;;5092549;28;20204;-95
2022/09/07 03:18:44;;;;;;;5.50;5.05;;;18.00;99.90;;;;;;5092636;28;20219;-94
2022/09/07 03:21:12;;;;;;;5.25;4.85;;;18.00;99.90;;;;;;5093352;28;20251;-93
2022/09/07 03:23:41;;;;;;;5.70;5.30;;;18.00;99.90;;;;;;5097018;28;20224;-93
2022/09/07 03:26:29;;;;;;;5.13;4.72;;;18.00;99.90;;;;;;5097037;28;20208;-93
2022/09/07 03:32:23;;;;;;;5.43;5.03;;;17.90;99.90;;;;;;5071247;28;20280;-93
2022/09/07 03:34:58;;;;;;;6.75;6.10;;;18.00;99.90;;;;;;5096364;28;20296;-94
2022/09/07 03:37:38;;;;;;;4.72;4.43;;;17.90;99.90;;;;;;5100332;28;20200;-94
2022/09/07 03:43:08;;;;;;;6.35;5.85;;;17.90;99.90;;;;;;5095824;28;20231;-93
2022/09/07 03:46:06;;;;;;;5.80;5.30;;;17.90;99.90;;;;;;5097063;28;20272;-93
2022/09/07 03:48:53;;;;;;;6.75;6.15;;;17.90;99.90;;;;;;5096485;28;20294;-92
2022/09/07 03:51:42;;;;;;;6.97;6.35;;;17.90;99.90;;;;;;5096811;28;20265;-94
2022/09/07 03:54:21;;;;;;;8.82;6.53;;;17.90;99.90;;;;;;5096822;28;20300;-94
2022/09/07 03:57:02;;;;;;;7.10;6.50;;;17.80;99.90;;;;;;5096209;28;20224;-94
2022/09/07 03:59:53;;;;;;;7.93;7.22;;;17.80;99.90;;;;;;5095821;28;20224;-94
2022/09/07 04:02:47;;;;;;;7.28;6.22;;;17.80;99.90;;;;;;5095997;28;20270;-93
2022/09/07 04:06:08;;;;;;;6.40;5.85;;;17.70;99.90;;;;;;5096085;28;20222;-94
2022/09/07 04:09:08;;;;;;;6.47;5.95;;;17.80;99.90;;;;;;5096382;28;20219;-94
2022/09/07 04:11:59;;;;;;;7.05;6.25;;;17.70;99.90;;;;;;5095863;28;20243;-94
2022/09/07 04:14:29;;;;;;;9.65;6.35;;;17.70;99.90;;;;;;5095914;28;20257;-93
2022/09/07 04:23:45;;;;;;;7.20;6.53;;;17.70;99.90;;;;;;5090385;28;20295;-95
2022/09/07 04:26:22;;;;;;;7.70;6.93;;;17.70;99.90;;;;;;5095632;28;20205;-93
2022/09/07 04:29:30;;;;;;;7.32;6.72;;;17.70;99.90;;;;;;5093130;28;20295;-93
2022/09/07 04:32:02;;;;;;;7.40;6.78;;;17.70;99.90;;;;;;5095825;28;20346;-93
2022/09/07 04:34:30;;;;;;;8.10;7.40;;;17.60;99.90;;;;;;5095203;28;20204;-93
2022/09/07 04:36:59;;;;;;;8.95;8.02;;;17.60;99.90;;;;;;5095628;28;20200;-93
2022/09/07 04:39:27;;;;;;;7.65;7.05;;;17.60;99.90;;;;;;5095446;28;20220;-93
2022/09/07 04:41:57;;;;;;;9.27;8.38;;;17.60;99.90;;;;;;5095370;28;20250;-94
2022/09/07 04:44:25;;;;;;;8.68;7.88;;;17.70;99.90;;;;;;5095718;28;20200;-93
2022/09/07 04:46:54;;;;;;;10.02;9.13;;;17.60;99.90;;;;;;5095655;28;20212;-93
2022/09/07 04:49:22;;;;;;;9.90;8.80;;;17.70;99.90;;;;;;5094641;28;20264;-94
2022/09/07 04:51:51;;;;;;;8.18;7.38;;;17.70;99.90;;;;;;5095318;28;20263;-94
2022/09/07 04:54:19;;;;;;;8.88;8.07;;;17.60;99.90;;;;;;5095274;28;20294;-95
2022/09/07 04:56:47;;;;;;;8.63;7.93;;;17.70;99.90;;;;;;5095306;28;20223;-94
2022/09/07 04:59:17;;;;;;;9.65;8.70;;;17.70;99.90;;;;;;5094843;28;20247;-93
2022/09/07 05:01:46;;;;;;;8.50;7.80;;;17.70;99.90;;;;;;5095117;28;20315;-93
2022/09/07 05:04:14;;;;;;;9.27;8.50;;;17.70;99.90;;;;;;5095206;28;20220;-92
2022/09/07 05:06:43;;;;;;;9.38;8.48;;;17.70;99.90;;;;;;5095594;28;20208;-93
2022/09/07 05:09:12;;;;;;;9.60;8.88;;;17.70;99.90;;;;;;5095365;28;20212;-94
2022/09/07 05:11:41;;;;;;;9.32;8.45;;;17.70;99.90;;;;;;5095598;28;20231;-92
2022/09/07 05:14:13;;;;;;;9.90;9.02;;;17.70;99.90;;;;;;5095896;28;20241;-91
2022/09/07 05:16:43;;;;;;;10.02;8.98;;;17.70;99.90;;;;;;5096671;28;20263;-95
2022/09/07 05:19:13;;;;;;;9.45;8.50;;;17.70;99.90;;;;;;5095969;28;20223;-92
2022/09/07 05:21:41;;;;;;;8.65;7.85;;;17.80;99.90;;;;;;5096330;28;20247;-94
2022/09/07 05:24:10;;;;;;;7.93;7.30;;;17.80;99.90;;;;;;5098184;28;20265;-95
2022/09/07 05:26:38;;;;;;;10.25;9.23;;;17.80;99.90;;;;;;5095663;28;20300;-93
2022/09/07 05:29:07;;;;;;;8.48;7.68;;;17.80;99.90;;;;;;5095050;28;20295;-94
2022/09/07 05:31:57;;;;;;;9.02;8.13;;;17.80;99.90;;;;;;5094175;28;20242;-94
2022/09/07 05:34:26;;;;;;;8.75;7.95;;;17.70;99.90;;;;;;5094706;28;20305;-94
2022/09/07 05:36:55;;;;;;;8.52;7.80;;;17.70;99.90;;;;;;5094611;28;20242;-94
2022/09/07 05:39:24;;;;;;;9.27;8.48;;;17.70;99.90;;;;;;5094675;28;20270;-94
2022/09/07 05:41:53;;;;;;;8.68;7.88;;;17.70;99.90;;;;;;5094843;28;20220;-94
2022/09/07 05:44:21;;;;;;;9.45;8.57;;;17.70;99.90;;;;;;5094261;28;20239;-95
2022/09/07 05:47:12;;;;;;;8.85;8.05;;;17.80;99.90;;;;;;5094054;28;20295;-93
2022/09/07 05:49:40;;;;;;;9.57;8.77;;;17.70;99.90;;;;;;5094128;28;20204;-95
2022/09/07 05:52:09;;;;;;;9.70;8.85;;;17.80;99.90;;;;;;5093988;28;20228;-95
2022/09/07 05:54:37;;;;;;;9.95;8.93;;;17.80;99.90;;;;;;5094453;28;20231;-93
2022/09/07 05:57:07;;;;;;;8.88;8.15;;;17.90;99.90;;;;;;5093954;28;20228;-94
2022/09/07 05:59:35;;;;;;;8.85;8.02;;;17.90;99.90;;;;;;5093557;28;20246;-93
2022/09/07 06:02:04;;;;;;;10.27;8.85;;;18.00;99.90;;;;;;5094098;28;20233;-94
2022/09/07 06:04:34;;;;;;;9.23;8.40;;;18.10;99.90;;;;;;5094127;28;20212;-94
2022/09/07 06:07:02;;;;;;;9.02;8.13;;;18.10;99.90;;;;;;5094460;28;20206;-93
2022/09/07 06:09:49;;;;;;;9.68;8.88;;;18.20;99.90;;;;;;5093566;28;20220;-95
2022/09/07 06:12:37;;;;;;;8.48;7.78;;;18.20;99.90;;;;;;5093336;28;20288;-94
2022/09/07 06:15:07;;;;;;;9.82;9.02;;;18.30;99.90;;;;;;5093428;28;20254;-95
2022/09/07 06:17:35;;;;;;;10.00;9.05;;;18.40;99.90;;;;;;5093609;28;20223;-94
2022/09/07 06:20:06;;;;;;;10.85;9.77;;;18.40;99.90;;;;;;5093593;28;20216;-94
2022/09/07 06:22:36;;;;;;;8.45;7.65;;;18.40;99.90;;;;;;5093875;28;20228;-95
2022/09/07 06:25:05;;;;;;;8.43;7.57;;;18.30;99.90;;;;;;5093879;28;20204;-93
2022/09/07 06:27:34;;;;;;;9.32;8.60;;;18.40;99.90;;;;;;5094862;28;20291;-93
2022/09/07 06:30:12;;;;;;;9.75;8.50;;;18.30;99.90;;;;;;5093811;28;20203;-93
2022/09/07 06:32:40;;;;;;;10.07;9.23;;;18.40;99.90;;;;;;5093890;28;20250;-94
2022/09/07 06:35:11;;;;;;;9.18;8.38;;;18.30;99.90;;;;;;5093859;28;20205;-94
2022/09/07 06:37:39;;;;;;;9.32;8.52;;;18.40;99.90;;;;;;5093323;28;20291;-93
2022/09/07 06:40:10;;;;;;;9.20;8.40;;;18.40;99.90;;;;;;5093097;28;20232;-92
2022/09/07 06:42:39;;;;;;;8.63;7.57;;;18.40;99.90;;;;;;5093337;28;20244;-94
2022/09/07 06:45:09;;;;;;;7.40;6.80;;;18.50;99.90;;;;;;5093272;28;20234;-93
2022/09/07 06:47:39;;;;;;;12.13;8.80;;;18.50;99.90;;;;;;5093539;28;20212;-93
2022/09/07 06:50:11;;;;;;;10.40;9.52;;;18.60;99.90;;;;;;5093034;28;20226;-94
2022/09/07 06:52:39;;;;;;;9.07;8.25;;;18.70;99.90;;;;;;5093021;28;20285;-93
2022/09/07 06:55:28;;;;;;;8.52;7.80;;;18.70;99.90;;;;;;5092295;28;20200;-93
2022/09/07 06:57:57;;;;;;;8.80;8.02;;;18.80;99.90;;;;;;5092730;28;20208;-93
2022/09/07 07:00:25;;;;;;;10.05;8.75;;;18.90;99.90;;;;;;5093056;28;20220;-92
2022/09/07 07:02:54;;;;;;;9.43;8.63;;;18.90;99.90;;;;;;5092933;28;20291;-94
2022/09/07 07:05:25;;;;;;;10.98;8.50;;;18.90;99.90;;;;;;5092919;28;20216;-95
2022/09/07 07:07:55;;;;;;;8.18;7.47;;;19.00;99.90;;;;;;5092793;28;20228;-94
2022/09/07 07:10:23;;;;;;;8.60;7.90;;;19.10;99.90;;;;;;5092807;28;20276;-94
2022/09/07 07:12:55;;;;;;;10.30;8.82;;;19.20;99.90;;;;;;5093635;28;20220;-94
2022/09/07 07:15:27;;;;;;;9.40;8.50;;;19.30;99.90;;;;;;5093177;28;20263;-92
2022/09/07 07:18:04;;;;;;;8.55;7.85;;;19.30;99.90;;;;;;5092718;28;20208;-94
2022/09/07 07:20:49;;;;;;;8.85;7.97;;;19.50;99.90;;;;;;5092766;28;20269;-94
2022/09/07 07:23:17;;;;;;;8.77;7.97;;;19.60;99.90;;;;;;5092874;28;20300;-93
2022/09/07 07:25:49;;;;;;;8.88;7.88;;;19.80;99.90;;;;;;5093872;28;20284;-93
2022/09/07 07:28:17;;;;;;;7.90;7.30;;;19.90;99.90;;;;;;5097802;28;20276;-93
2022/09/07 07:31:06;;;;;;;7.30;6.70;;;20.00;99.90;;;;;;5095525;28;20216;-93
2022/09/07 07:33:40;;;;;;;8.50;7.78;;;20.10;99.90;;;;;;5093455;28;20211;-94
2022/09/07 07:36:13;;;;;;;10.27;7.88;;;20.10;99.90;;;;;;5093720;28;20200;-93
2022/09/07 07:38:42;;;;;;;7.28;6.68;;;20.10;99.90;;;;;;5092729;28;20218;-94
2022/09/07 07:41:30;;;;;;;10.60;7.60;;;20.10;99.90;;;;;;5092877;28;20240;-93
2022/09/07 07:44:19;;;;;;;7.22;6.60;;;20.20;99.90;;;;;;5092530;28;20215;-93
2022/09/07 07:46:48;;;;;;;8.20;7.38;;;20.30;99.90;;;;;;5092712;28;20207;-94
2022/09/07 07:49:16;;;;;;;8.18;7.47;;;20.40;99.90;;;;;;5092402;28;20215;-92
2022/09/07 07:51:46;;;;;;;7.63;6.93;;;20.40;99.90;;;;;;5092198;28;20221;-94
2022/09/07 07:54:35;;;;;;;10.02;7.35;;;20.40;99.90;;;;;;5092346;28;20212;-92
2022/09/07 07:57:05;;;;;;;8.73;7.90;;;20.50;99.90;;;;;;5092600;28;20239;-94
2022/09/07 07:59:33;;;;;;;8.18;7.38;;;20.70;99.90;;;;;;5092098;28;20204;-93
2022/09/07 08:02:03;;;;;;;8.07;7.32;;;20.70;99.90;;;;;;5092228;28;20232;-94
2022/09/07 08:04:33;;;;;;;7.82;7.03;;;20.70;99.90;;;;;;5092953;28;20219;-93
2022/09/07 08:07:04;;;;;;;9.40;6.75;;;20.80;99.90;;;;;;5093080;28;20208;-94
2022/09/07 08:09:39;;;;;;;8.07;7.38;;;20.90;99.90;;;;;;5096471;28;20203;-94
2022/09/07 08:12:10;;;;;;;7.07;6.38;;;21.00;99.90;;;;;;5096877;28;20227;-93
2022/09/07 08:14:39;;;;;;;7.25;6.55;;;21.00;99.90;;;;;;5096336;28;20204;-93
2022/09/07 08:17:09;;;;;;;10.15;6.93;;;21.30;99.90;;;;;;5096257;28;20301;-93
2022/09/07 08:19:38;;;;;;;5.85;5.30;;;21.50;99.90;;;;;;5095844;28;20235;-94
2022/09/07 08:22:08;;;;;;;6.05;5.45;;;21.80;99.90;;;;;;5095909;28;20311;-94
2022/09/07 08:24:36;;;;;;;9.07;5.68;;;22.30;99.90;;;;;;5096659;28;20204;-94
2022/09/07 08:27:05;;;;;;;6.43;5.93;;;22.70;99.90;;;;;;5096233;28;20219;-94
2022/09/07 08:29:33;;;;;;;5.05;4.65;;;23.10;99.90;;;;;;5095770;28;20208;-93
2022/09/07 08:32:05;;;;;;;6.03;5.43;;;23.50;99.90;;;;;;5096444;28;20220;-93
2022/09/07 08:34:36;;;;;;;5.60;5.13;;;24.10;99.90;;;;;;5096378;28;20204;-94
2022/09/07 08:37:04;;;;;;;4.47;4.18;;;24.60;99.90;;;;;;5097023;28;20287;-92
2022/09/07 08:39:49;;;;;;;6.25;5.72;;;25.40;99.90;;;;;;5099595;28;20196;-92
2022/09/07 08:42:41;;;;;;;7.07;5.82;;;26.00;99.90;;;;;;5099847;28;20220;-94
2022/09/07 08:45:14;;;;;;;7.28;5.28;;;26.50;99.90;;;;;;5099114;28;20299;-92
2022/09/07 08:47:48;;;;;;;5.72;5.28;;;27.00;99.90;;;;;;5099664;28;20210;-93
2022/09/07 08:50:22;;;;;;;6.22;5.72;;;27.30;99.90;;;;;;5096964;28;20223;-95
2022/09/07 08:52:55;;;;;;;5.20;4.80;;;27.30;99.90;;;;;;5096205;28;20239;-94
2022/09/07 08:55:30;;;;;;;13.52;5.45;;;27.40;99.90;;;;;;5095860;28;20210;-95
2022/09/07 08:58:06;;;;;;;5.20;4.72;;;27.90;99.90;;;;;;5095861;28;20204;-94
2022/09/07 09:00:54;;;;;;;8.55;5.82;;;28.30;99.90;;;;;;5096594;28;20215;-94
2022/09/07 09:03:50;;;;;;;4.50;4.15;;;28.10;99.90;;;;;;5095157;28;20275;-95
2022/09/07 09:06:48;;;;;;;5.95;4.93;;;28.60;99.90;;;;;;5095466;28;20196;-95
2022/09/07 09:09:25;;;;;;;4.47;4.18;;;29.20;99.90;;;;;;5095766;28;20227;-95
2022/09/07 09:12:06;;;;;;;4.88;4.47;;;29.60;99.90;;;;;;5095494;28;20226;-94
2022/09/07 09:14:46;;;;;;;21.83;4.18;;;29.90;99.90;;;;;;5093036;28;20211;-95
2022/09/07 09:17:25;;;;;;;4.68;4.38;;;30.30;99.90;;;;;;5093162;28;20207;-94
2022/09/07 09:20:02;;;;;;;4.78;4.38;;;30.50;99.90;;;;;;5091882;28;20207;-94
2022/09/07 09:22:30;;;;;;;5.35;4.85;;;30.70;99.90;;;;;;5093001;28;20227;-94
2022/09/07 09:25:07;;;;;;;4.30;3.95;;;31.00;99.90;;;;;;5092947;28;20209;-94
2022/09/07 09:27:37;;;;;;;4.90;4.50;;;31.30;99.50;;;;;;5092698;28;20203;-95
2022/09/07 09:30:13;;;;;;;5.80;4.03;;;31.20;99.20;;;;;;5092165;28;20200;-94
2022/09/07 09:32:43;;;;;;;6.72;4.45;;;31.40;99.90;;;;;;5092823;28;20223;-94
2022/09/07 09:35:27;;;;;;;4.70;4.28;;;31.70;99.00;;;;;;5092643;28;20290;-94
2022/09/07 09:37:56;;;;;;;5.13;4.72;;;32.30;99.10;;;;;;5093003;28;20214;-95
2022/09/07 09:40:26;;;;;;;4.72;4.32;;;32.50;96.10;;;;;;5092290;28;20200;-94
2022/09/07 09:43:06;;;;;;;4.55;4.15;;;32.50;95.90;;;;;;5092520;28;20239;-93
2022/09/07 09:45:42;;;;;;;6.45;4.60;;;32.30;95.90;;;;;;5092216;28;20214;-93
2022/09/07 09:48:33;;;;;;;4.95;4.45;;;31.90;96.00;;;;;;5091794;28;20200;-94
2022/09/07 09:51:04;;;;;;;5.25;4.22;;;31.60;96.30;;;;;;5092225;28;20203;-93
2022/09/07 09:53:58;;;;;;;4.47;4.15;;;31.80;96.20;;;;;;5091929;28;20222;-94
2022/09/07 09:56:37;;;;;;;5.25;4.75;;;32.20;96.30;;;;;;5092987;28;20218;-94
2022/09/07 09:59:26;;;;;;;4.40;4.10;;;32.10;95.20;;;;;;5091833;28;20211;-95
2022/09/07 10:02:30;;;;;;;4.03;3.65;;;32.20;95.70;;;;;;5091235;28;20230;-94
2022/09/07 10:05:27;;;;;;;3.42;3.22;;;32.70;94.90;;;;;;5091208;28;20235;-94
2022/09/07 10:07:57;;;;;;;4.50;4.10;;;33.30;93.90;;;;;;5091591;28;20208;-96
2022/09/07 10:10:27;;;;;;;4.93;4.53;;;33.60;93.80;;;;;;5091857;28;20208;-94
2022/09/07 10:12:56;;;;;;;4.25;3.85;;;32.50;92.60;;;;;;5092094;28;20241;-93
2022/09/07 10:15:34;;;;;;;4.13;3.80;;;32.10;93.80;;;;;;5094079;28;20211;-92
2022/09/07 10:18:08;;;;;;;4.28;3.95;;;32.30;93.60;;;;;;5094524;28;20204;-95
2022/09/07 10:20:38;;;;;;;4.00;3.70;;;32.20;93.60;;;;;;5093682;28;20300;-94
2022/09/07 10:23:18;;;;;;;4.03;3.72;;;32.10;93.90;;;;;;5092179;28;20232;-94
2022/09/07 10:25:47;;;;;;;4.45;3.78;;;32.00;93.90;;;;;;5091359;28;20218;-93
2022/09/07 10:28:19;;;;;;;3.55;3.33;;;32.00;94.00;;;;;;5091641;28;20204;-94
2022/09/07 10:31:21;;;;;;;3.83;3.53;;;32.20;93.30;;;;;;5090872;28;20235;-95
2022/09/07 10:34:00;;;;;;;4.93;4.50;;;32.30;92.90;;;;;;5091138;28;20247;-93
2022/09/07 10:36:56;;;;;;;4.07;3.78;;;31.40;93.00;;;;;;5091110;28;20200;-93
2022/09/07 10:39:28;;;;;;;4.55;3.95;;;31.20;94.20;;;;;;5091028;28;20208;-94
2022/09/07 10:42:04;;;;;;;4.32;3.92;;;31.00;94.50;;;;;;5091052;28;20228;-92
2022/09/07 10:44:47;;;;;;;5.10;3.97;;;31.50;94.90;;;;;;5090835;28;20208;-93
2022/09/07 10:47:32;;;;;;;3.80;3.50;;;31.70;93.40;;;;;;5092947;28;20210;-93
2022/09/07 10:50:29;;;;;;;9.30;4.32;;;31.90;93.70;;;;;;5093056;28;20216;-94
2022/09/07 10:53:14;;;;;;;3.53;3.25;;;32.10;93.10;;;;;;5092721;28;20258;-93
2022/09/07 10:56:07;;;;;;;2.90;2.70;;;32.40;92.90;;;;;;5092773;28;20214;-91
2022/09/07 10:58:49;;;;;;;3.25;3.03;;;32.70;92.60;;;;;;5092875;28;20291;-89
2022/09/07 11:01:48;;;;;;;5.55;4.07;;;33.10;92.60;;;;;;5092868;28;20228;-82
2022/09/07 11:04:37;;;;;;;4.65;3.63;;;33.60;91.90;;;;;;5092534;28;20310;-92
2022/09/07 11:07:16;;;;;;;4.50;3.20;;;33.90;91.60;;;;;;5091580;28;20234;-91
2022/09/07 11:09:57;;;;;;;6.45;3.80;;;34.10;90.50;;;;;;5092563;28;20211;-92
2022/09/07 11:12:29;;;;;;;3.35;3.15;;;34.60;90.10;;;;;;5092769;28;20228;-92
2022/09/07 11:15:09;;;;;;;3.97;3.50;;;34.70;89.10;;;;;;5092858;28;20204;-93
2022/09/07 11:17:46;;;;;;;4.25;3.28;;;34.60;90.10;;;;;;5091913;28;20200;-93
2022/09/07 11:20:29;;;;;;;4.13;3.83;;;34.70;90.10;;;;;;5097672;28;20211;-92
2022/09/07 11:23:13;;;;;;;4.45;4.05;;;34.90;87.60;;;;;;5096498;28;20220;-93
2022/09/07 11:26:12;;;;;;;4.45;3.30;;;35.00;87.80;;;;;;5097270;28;20207;-93
2022/09/07 11:28:47;;;;;;;5.82;4.00;;;35.20;87.20;;;;;;5085601;28;20210;-93
2022/09/07 11:31:41;;;;;;;4.53;3.65;;;35.00;85.20;;;;;;5086973;28;20227;-94
2022/09/07 11:34:30;;;;;;;3.55;3.25;;;34.90;84.70;;;;;;5085409;28;20202;-94
2022/09/07 11:37:06;;;;;;;3.10;2.90;;;35.00;85.60;;;;;;5072449;28;20210;-93
2022/09/07 11:39:40;;;;;;;3.20;3.00;;;35.10;84.30;;;;;;5078775;28;20196;-93
2022/09/07 11:42:24;;;;;;;4.13;3.75;;;35.00;84.30;;;;;;5092648;28;20224;-90
2022/09/07 11:45:17;;;;;;;4.70;3.63;;;34.90;82.70;;;;;;5095787;28;20191;-93
2022/09/07 11:47:49;;;;;;;4.57;3.35;;;34.80;82.40;;;;;;5075872;28;20274;-93
2022/09/07 11:50:21;;;;;;;3.42;3.13;;;35.00;83.10;;;;;;5083463;28;20206;-93
2022/09/07 11:52:54;;;;;;;4.13;3.72;;;35.20;82.80;;;;;;5095998;28;20231;-93
2022/09/07 11:55:26;;;;;;;12.43;3.22;;;35.10;82.00;;;;;;5096436;28;20210;-93
2022/09/07 11:58:29;;;;;;;4.82;4.32;;;34.90;82.20;;;;;;5096130;28;20294;-92
2022/09/07 12:01:14;;;;;;;4.40;3.78;;;35.20;81.40;;;;;;5087341;28;20200;-92
2022/09/07 12:04:03;;;;;;;3.80;3.40;;;35.50;81.00;;;;;;5081536;28;20218;-93
2022/09/07 12:06:59;;;;;;;3.38;3.08;;;35.50;80.20;;;;;;5088099;28;20187;-96
2022/09/07 12:10:00;;;;;;;3.60;3.30;;;35.30;80.00;;;;;;5097714;28;20200;-92
2022/09/07 12:12:49;;;;;;;7.95;3.85;;;35.40;80.10;;;;;;5097461;28;20219;-91
2022/09/07 12:15:30;;;;;;;3.15;2.95;;;35.60;80.30;;;;;;5095564;28;20206;-92
2022/09/07 12:18:14;;;;;;;4.70;3.42;;;35.90;78.00;;;;;;5096728;28;20203;-92
2022/09/07 12:20:44;;;;;;;3.47;3.28;;;36.00;78.90;;;;;;5095506;28;20204;-92
2022/09/07 12:23:24;;;;;;;6.15;3.28;;;35.80;77.60;;;;;;5095073;28;20246;-92
2022/09/07 12:26:32;;;;;;;4.35;3.08;;;35.70;78.80;;;;;;5095923;28;20210;-92
2022/09/07 12:29:18;;;;;;;3.85;3.55;;;36.00;80.20;;;;;;5083631;28;20196;-93
2022/09/07 12:31:49;;;;;;;3.45;3.15;;;36.20;77.30;;;;;;5095705;28;20216;-93
2022/09/07 12:34:51;;;;;;;4.45;3.47;;;36.40;78.10;;;;;;5083585;28;20204;-92
2022/09/07 12:37:36;;;;;;;4.03;3.72;;;36.60;76.40;;;;;;5096094;28;20224;-93
2022/09/07 12:40:57;;;;;;;4.32;3.28;;;36.80;76.30;;;;;;5098029;28;20215;-93
2022/09/07 12:44:09;;;;;;;3.55;3.25;;;36.70;75.60;;;;;;5095129;28;20218;-93
2022/09/07 12:46:50;;;;;;;5.10;4.15;;;36.60;75.10;;;;;;5074191;28;20207;-93
2022/09/07 12:49:54;;;;;;;4.57;3.50;;;36.30;74.10;;;;;;5095263;28;20215;-94
2022/09/07 12:52:48;;;;;;;5.00;3.42;;;36.40;74.70;;;;;;5094961;28;20309;-94
2022/09/07 12:55:42;;;;;;;3.75;3.45;;;36.10;73.20;;;;;;5094461;28;20207;-92
2022/09/07 12:58:43;;;;;;;10.32;3.80;;;35.70;73.90;;;;;;5089644;28;20207;-94
2022/09/07 13:01:27;;;;;;;4.40;4.00;;;35.70;75.40;;;;;;5094818;28;20220;-94
2022/09/07 13:04:33;;;;;;;6.88;3.97;;;35.70;74.10;;;;;;5094801;28;20216;-94
2022/09/07 13:07:18;;;;;;;72.85;50.13;;;35.90;75.00;;;;;;5054781;28;20192;-80
2022/09/07 13:09:56;;;;;;;7.35;3.65;;;35.90;75.70;;;;;;5094168;28;20207;-87
2022/09/07 13:12:30;;;;;;;4.05;3.75;;;35.90;74.00;;;;;;5093821;28;20226;-89
2022/09/07 13:15:41;;;;;;;4.40;4.00;;;35.80;74.90;;;;;;5093678;28;20191;-88
2022/09/07 13:18:27;;;;;;;3.63;3.35;;;35.60;74.00;;;;;;5093783;28;20211;-88
2022/09/07 13:21:29;;;;;;;10.38;3.40;;;35.20;75.40;;;;;;5073244;28;20208;-90
2022/09/07 13:24:42;;;;;;;8.75;7.95;;;34.70;75.30;;;;;;5085493;28;20319;-92
2022/09/07 13:27:41;;;;;;;5.78;3.65;;;34.20;76.20;;;;;;5085150;28;20200;-90
2022/09/07 13:30:29;;;;;;;3.60;3.30;;;33.80;78.40;;;;;;5077053;28;20200;-92
2022/09/07 13:33:35;;;;;;;3.75;3.45;;;33.90;78.70;;;;;;5082375;28;20216;-93
2022/09/07 13:36:06;;;;;;;3.70;3.35;;;33.90;77.50;;;;;;5088172;28;20200;-93
2022/09/07 13:38:44;;;;;;;14.20;3.50;;;33.80;75.40;;;;;;5086263;28;20196;-90
2022/09/07 13:41:16;;;;;;;3.90;3.50;;;33.90;78.80;;;;;;5090206;28;20219;-92
2022/09/07 13:43:47;;;;;;;3.75;3.35;;;33.60;76.00;;;;;;5093440;28;20207;-93
2022/09/07 13:46:31;;;;;;;3.58;3.28;;;33.80;77.30;;;;;;5093391;28;20206;-91
2022/09/07 13:49:10;;;;;;;3.58;3.28;;;33.80;76.70;;;;;;5092953;28;20200;-91
2022/09/07 13:51:45;;;;;;;4.55;4.13;;;33.50;75.80;;;;;;5075385;28;20227;-93
2022/09/07 13:54:25;;;;;;;5.40;4.05;;;33.40;76.80;;;;;;5073432;28;20200;-92
2022/09/07 13:57:04;;;;;;;5.00;3.45;;;33.10;77.10;;;;;;5073096;28;20205;-92